createdAt,value
2022-11-17T00:01:48.696Z,42.70
2022-11-17T00:04:51.103Z,39.05
2022-11-17T00:07:52.941Z,38.22
2022-11-17T00:10:54.755Z,33.33
2022-11-17T00:14:14.974Z,35.60
2022-11-17T00:17:16.962Z,36.95
2022-11-17T00:20:37.625Z,36.67
2022-11-17T00:23:48.529Z,35.25
2022-11-17T00:27:02.349Z,36.87
2022-11-17T00:30:05.415Z,38.67
2022-11-17T00:33:27.343Z,35.30
2022-11-17T00:36:29.146Z,37.33
2022-11-17T00:39:31.038Z,38.97
2022-11-17T00:42:32.834Z,34.47
2022-11-17T00:45:34.647Z,34.00
2022-11-17T00:48:36.479Z,36.55
2022-11-17T00:51:38.890Z,45.20
2022-11-17T00:54:40.642Z,35.78
2022-11-17T00:57:42.445Z,44.80
2022-11-17T01:00:44.482Z,45.80
2022-11-17T01:03:46.948Z,39.38
2022-11-17T01:06:49.901Z,41.50
2022-11-17T01:09:52.174Z,36.67
2022-11-17T01:12:53.963Z,37.93
2022-11-17T01:15:55.726Z,31.70
2022-11-17T01:19:00.594Z,41.95
2022-11-17T01:22:02.467Z,39.97
2022-11-17T01:25:05.058Z,35.35
2022-11-17T01:28:06.862Z,29.80
2022-11-17T01:31:20.909Z,36.75
2022-11-17T01:34:22.781Z,37.97
2022-11-17T01:37:24.559Z,27.70
2022-11-17T01:40:26.375Z,30.13
2022-11-17T01:43:47.410Z,25.33
2022-11-17T01:46:49.410Z,27.13
2022-11-17T01:49:56.351Z,31.00
2022-11-17T01:53:01.119Z,31.50
2022-11-17T01:56:11.103Z,27.87
2022-11-17T01:59:29.535Z,27.50
2022-11-17T02:02:31.787Z,29.70
2022-11-17T02:06:00.546Z,24.27
2022-11-17T02:09:04.106Z,29.63
2022-11-17T02:12:09.429Z,26.67
2022-11-17T02:15:11.616Z,26.73
2022-11-17T02:18:16.454Z,23.73
2022-11-17T02:21:40.510Z,26.73
2022-11-17T02:24:42.314Z,30.33
2022-11-17T02:28:02.871Z,29.10
2022-11-17T02:31:27.082Z,28.63
2022-11-17T02:34:46.758Z,32.40
2022-11-17T02:38:12.684Z,33.95
2022-11-17T02:41:38.451Z,34.72
2022-11-17T02:44:51.976Z,34.70
2022-11-17T02:47:55.973Z,42.10
2022-11-17T02:50:58.975Z,37.88
2022-11-17T02:54:02.148Z,43.85
2022-11-17T02:57:04.074Z,39.50
2022-11-17T03:00:12.030Z,46.20
2022-11-17T03:03:41.919Z,44.20
2022-11-17T03:07:21.195Z,48.88
2022-11-17T03:10:48.758Z,31.88
2022-11-17T03:14:10.265Z,41.80
2022-11-17T03:17:28.956Z,36.95
2022-11-17T03:20:42.505Z,36.60
2022-11-17T03:23:54.730Z,33.95
2022-11-17T03:27:37.118Z,38.40
2022-11-17T03:30:43.186Z,36.10
2022-11-17T03:33:48.902Z,43.08
2022-11-17T03:36:57.159Z,30.40
2022-11-17T03:40:04.774Z,43.53
2022-11-17T03:43:10.050Z,40.75
2022-11-17T03:46:16.483Z,33.30
2022-11-17T03:49:53.398Z,27.37
2022-11-17T03:52:55.247Z,28.47
2022-11-17T03:56:02.107Z,28.92
2022-11-17T03:59:15.718Z,24.67
2022-11-17T04:02:19.669Z,22.92
2022-11-17T04:05:21.860Z,18.47
2022-11-17T04:08:25.978Z,11.60
2022-11-17T04:11:46.658Z,11.73
2022-11-17T04:15:07.242Z,9.55
2022-11-17T04:18:09.133Z,7.63
2022-11-17T04:21:11.115Z,10.88
2022-11-17T04:24:12.974Z,10.63
2022-11-17T04:27:33.528Z,9.82
2022-11-17T04:30:35.494Z,8.30
2022-11-17T04:33:40.051Z,6.38
2022-11-17T04:36:45.271Z,7.97
2022-11-17T04:39:47.162Z,6.53
2022-11-17T04:42:48.976Z,5.82
2022-11-17T04:45:50.787Z,4.07
2022-11-17T04:48:55.375Z,3.97
2022-11-17T04:51:57.167Z,2.45
2022-11-17T04:54:58.960Z,2.20
2022-11-17T04:58:00.809Z,3.75
2022-11-17T05:01:17.389Z,4.20
2022-11-17T05:04:39.054Z,4.25
2022-11-17T05:07:40.930Z,2.00
2022-11-17T05:11:01.103Z,1.20
2022-11-17T05:14:03.325Z,2.28
2022-11-17T05:17:09.466Z,2.20
2022-11-17T05:20:12.077Z,3.08
2022-11-17T05:23:37.042Z,2.63
2022-11-17T05:26:39.188Z,3.57
2022-11-17T05:29:41.015Z,3.63
2022-11-17T05:32:43.003Z,2.75
2022-11-17T05:35:44.807Z,3.78
2022-11-17T05:38:47.668Z,5.25
2022-11-17T05:41:49.485Z,3.67
2022-11-17T05:44:51.330Z,4.18
2022-11-17T05:47:53.168Z,1.80
2022-11-17T05:50:56.203Z,4.32
2022-11-17T05:53:58.139Z,1.40
2022-11-17T05:57:04.762Z,3.80
2022-11-17T06:00:08.860Z,3.53
2022-11-17T06:03:21.599Z,1.98
2022-11-17T06:06:23.639Z,3.28
2022-11-17T06:09:32.852Z,1.57
2022-11-17T06:12:35.009Z,5.07
2022-11-17T06:15:38.305Z,1.67
2022-11-17T06:18:56.175Z,1.13
2022-11-17T06:22:11.615Z,1.88
2022-11-17T06:25:15.818Z,2.35
2022-11-17T06:28:22.036Z,1.30
2022-11-17T06:31:27.099Z,1.77
2022-11-17T06:34:29.569Z,2.40
2022-11-17T06:37:31.660Z,1.60
2022-11-17T06:40:33.583Z,2.63
2022-11-17T06:43:35.654Z,4.83
2022-11-17T06:46:43.684Z,4.32
2022-11-17T06:49:48.156Z,2.13
2022-11-17T06:52:50.029Z,2.17
2022-11-17T06:56:05.323Z,3.33
2022-11-17T06:59:07.282Z,3.93
2022-11-17T07:02:09.265Z,3.22
2022-11-17T07:05:11.268Z,2.00
2022-11-17T07:08:14.540Z,2.13
2022-11-17T07:11:17.219Z,4.40
2022-11-17T07:14:19.773Z,5.27
2022-11-17T07:17:21.657Z,5.75
2022-11-17T07:20:23.564Z,2.65
2022-11-17T07:23:25.377Z,1.92
2022-11-17T07:26:27.244Z,1.83
2022-11-17T07:29:30.853Z,2.13
2022-11-17T07:32:34.203Z,1.55
2022-11-17T07:35:36.871Z,1.80
2022-11-17T07:38:40.640Z,2.83
2022-11-17T07:41:42.674Z,1.25
2022-11-17T07:44:44.662Z,1.73
2022-11-17T07:47:53.758Z,1.40
2022-11-17T07:50:58.789Z,2.08
2022-11-17T07:54:00.615Z,1.65
2022-11-17T07:57:02.471Z,1.13
2022-11-17T08:00:44.479Z,1.43
2022-11-17T08:04:06.423Z,0.82
2022-11-17T08:07:08.465Z,0.80
2022-11-17T08:10:10.407Z,0.85
2022-11-17T08:13:14.137Z,1.10
2022-11-17T08:16:15.970Z,0.90
2022-11-17T08:19:17.944Z,0.63
2022-11-17T08:22:19.810Z,3.03
2022-11-17T08:25:23.736Z,2.45
2022-11-17T08:28:25.690Z,1.23
2022-11-17T08:31:27.652Z,1.60
2022-11-17T08:34:29.504Z,2.08
2022-11-17T08:37:33.879Z,0.90
2022-11-17T08:40:35.932Z,2.47
2022-11-17T09:48:41.733Z,2.00
2022-11-17T09:51:47.472Z,2.55
2022-11-17T09:54:56.984Z,3.05
2022-11-17T09:58:22.428Z,5.32
2022-11-17T10:01:28.478Z,2.05
2022-11-17T10:04:30.443Z,1.60
2022-11-17T10:07:34.869Z,2.42
2022-11-17T10:10:50.452Z,2.50
2022-11-17T10:13:52.826Z,2.85
2022-11-17T10:16:57.333Z,2.80
2022-11-17T10:19:59.252Z,1.63
2022-11-17T10:23:03.039Z,1.38
2022-11-17T10:26:11.324Z,2.40
2022-11-17T10:29:14.952Z,7.38
2022-11-17T10:32:16.836Z,3.80
2022-11-17T10:35:21.488Z,2.90
2022-11-17T10:38:28.966Z,4.10
2022-11-17T10:41:40.854Z,5.82
2022-11-17T10:44:45.695Z,8.38
2022-11-17T10:47:48.184Z,8.40
2022-11-17T10:50:58.422Z,3.53
2022-11-17T10:54:04.450Z,4.07
2022-11-17T10:57:12.450Z,2.58
2022-11-17T11:00:23.770Z,4.03
2022-11-17T11:03:34.930Z,2.10
2022-11-17T11:06:37.502Z,1.43
2022-11-17T11:10:03.592Z,1.92
2022-11-17T11:13:27.337Z,1.40
2022-11-17T11:16:30.339Z,1.55
2022-11-17T11:19:32.737Z,3.42
2022-11-17T11:22:44.500Z,19.20
2022-11-17T11:25:55.483Z,4.32
2022-11-17T11:29:15.568Z,2.63
2022-11-17T11:32:29.332Z,2.95
2022-11-17T11:35:51.752Z,1.23
2022-11-17T11:39:03.812Z,1.97
2022-11-17T11:42:53.276Z,2.42
2022-11-17T11:46:13.594Z,4.03
2022-11-17T11:49:34.907Z,6.85
2022-11-17T11:52:40.359Z,3.63
2022-11-17T11:55:44.845Z,2.47
2022-11-17T11:59:00.847Z,2.35
2022-11-17T12:02:11.799Z,2.33
2022-11-17T12:05:32.437Z,1.80
2022-11-17T12:08:45.609Z,1.55
2022-11-17T12:12:02.166Z,2.77
2022-11-17T12:15:18.976Z,1.55
2022-11-17T12:18:20.877Z,2.15
2022-11-17T12:21:27.456Z,4.82
2022-11-17T12:24:41.279Z,10.20
2022-11-17T12:27:46.811Z,10.07
2022-11-17T12:30:52.167Z,15.18
2022-11-17T12:33:54.035Z,5.70
2022-11-17T12:37:14.802Z,9.90
2022-11-17T12:40:38.215Z,11.93
2022-11-17T12:43:40.149Z,5.97
2022-11-17T12:46:44.385Z,7.45
2022-11-17T12:49:55.148Z,5.72
2022-11-17T12:53:08.916Z,5.05
2022-11-17T12:56:32.669Z,7.03
2022-11-17T13:00:00.718Z,6.53
2022-11-17T13:03:15.657Z,8.88
2022-11-17T13:06:35.017Z,9.02
2022-11-17T13:09:38.031Z,12.68
2022-11-17T13:12:39.836Z,13.77
2022-11-17T13:15:43.456Z,8.57
2022-11-17T13:18:46.276Z,9.00
2022-11-17T13:21:48.305Z,5.43
2022-11-17T13:24:50.936Z,9.88
2022-11-17T13:27:57.347Z,9.77
2022-11-17T13:31:01.187Z,6.77
2022-11-17T13:34:12.570Z,6.03
2022-11-17T14:14:30.615Z,7.75
2022-11-17T14:17:32.616Z,7.87
2022-11-17T14:20:35.986Z,6.20
2022-11-17T14:23:38.755Z,5.05
2022-11-17T14:26:44.521Z,4.50
2022-11-17T14:29:46.576Z,8.65
2022-11-17T14:32:48.764Z,5.80
2022-11-17T14:35:59.248Z,5.67
2022-11-17T14:39:02.655Z,6.20
2022-11-17T14:42:04.583Z,5.35
2022-11-17T14:45:07.873Z,4.82
2022-11-17T14:48:14.750Z,3.40
2022-11-17T14:51:21.639Z,3.30
2022-11-17T14:54:23.505Z,3.05
2022-11-17T14:57:25.344Z,3.55
2022-11-17T15:00:27.560Z,3.90
2022-11-17T15:03:29.436Z,4.15
2022-11-17T15:06:32.547Z,7.67
2022-11-17T15:09:34.374Z,9.43
2022-11-17T15:13:03.629Z,3.95
2022-11-17T15:16:06.311Z,6.07
2022-11-17T15:19:08.543Z,6.20
2022-11-17T15:22:10.484Z,7.00
2022-11-17T15:25:12.407Z,7.20
2022-11-17T15:28:20.521Z,5.68
2022-11-17T15:31:24.512Z,4.68
2022-11-17T15:34:26.635Z,7.53
2022-11-17T15:37:28.710Z,5.77
2022-11-17T15:40:30.711Z,6.35
2022-11-17T15:43:35.869Z,7.45
2022-11-17T15:46:39.658Z,5.70
2022-11-17T15:49:46.804Z,4.70
2022-11-17T15:53:03.653Z,7.20
2022-11-17T15:56:09.587Z,5.68
2022-11-17T15:59:11.718Z,6.55
2022-11-17T16:02:14.739Z,7.25
2022-11-17T16:05:16.653Z,6.50
2022-11-17T16:08:18.879Z,9.00
2022-11-17T16:11:21.266Z,7.00
2022-11-17T16:14:23.190Z,6.22
2022-11-17T16:17:25.072Z,5.35
2022-11-17T16:20:26.939Z,10.38
2022-11-17T16:23:28.851Z,4.70
2022-11-17T16:26:30.711Z,4.50
2022-11-17T19:25:42.795Z,4.90
2022-11-17T19:28:45.475Z,4.47
2022-11-17T19:31:47.900Z,3.83
2022-11-17T19:34:51.801Z,4.90
2022-11-17T19:37:57.593Z,9.47
2022-11-17T19:41:08.391Z,10.23
2022-11-17T19:44:10.627Z,9.23
2022-11-17T19:47:12.776Z,8.77
2022-11-17T19:50:15.023Z,9.87
2022-11-17T19:53:17.032Z,8.67
2022-11-17T19:56:21.478Z,8.23
2022-11-17T19:59:23.495Z,10.45
2022-11-17T20:02:25.623Z,5.13
2022-11-17T20:05:27.932Z,9.68
2022-11-17T20:08:30.287Z,14.43
2022-11-17T20:11:32.484Z,12.38
2022-11-17T20:14:34.651Z,6.68
2022-11-17T20:17:36.763Z,10.15
2022-11-17T20:20:38.687Z,11.87
2022-11-17T20:23:41.142Z,16.30
2022-11-17T20:26:44.224Z,20.02
2022-11-17T20:29:46.284Z,13.88
2022-11-17T20:32:48.531Z,15.73
2022-11-17T20:35:50.603Z,9.03
2022-11-17T20:38:54.301Z,7.73
2022-11-17T20:41:56.262Z,10.63
2022-11-17T20:44:58.332Z,7.70
2022-11-17T20:48:00.566Z,9.32
2022-11-17T20:51:05.607Z,8.97
2022-11-17T20:54:08.800Z,8.47
2022-11-17T20:57:10.640Z,12.98
2022-11-17T21:00:13.704Z,13.50
2022-11-17T21:03:15.903Z,6.80
2022-11-17T21:06:18.800Z,12.97
2022-11-17T21:09:22.088Z,12.50
2022-11-17T21:12:23.928Z,9.90
2022-11-17T21:15:26.120Z,21.15
2022-11-17T21:18:28.745Z,12.80
2022-11-17T21:21:30.951Z,16.43
2022-11-17T21:24:33.083Z,7.37
2022-11-17T21:27:34.967Z,7.20
2022-11-17T21:30:36.864Z,10.40
2022-11-17T21:33:39.448Z,6.82
2022-11-17T21:36:42.883Z,7.00
2022-11-17T21:39:44.847Z,7.80
2022-11-17T21:42:46.670Z,7.50
2022-11-17T21:45:48.591Z,7.47
2022-11-17T21:48:51.601Z,13.68
2022-11-17T21:51:53.521Z,16.33
2022-11-17T21:54:55.392Z,12.07
2022-11-17T21:57:57.262Z,11.75
2022-11-17T22:01:05.686Z,9.70
2022-11-17T22:04:07.736Z,9.77
2022-11-17T22:07:09.656Z,10.03
2022-11-17T22:10:11.597Z,8.30
2022-11-17T22:13:13.419Z,9.60
2022-11-17T22:16:15.464Z,8.60
2022-11-17T22:19:19.113Z,10.48
2022-11-17T22:22:21.667Z,11.37
2022-11-17T22:25:44.336Z,8.77
2022-11-17T22:28:45.401Z,10.00
2022-11-17T22:31:48.769Z,8.55
2022-11-17T22:34:50.675Z,10.57
2022-11-17T22:37:52.584Z,9.17
2022-11-17T22:41:02.763Z,8.60
2022-11-17T22:44:05.057Z,11.38
2022-11-17T22:47:06.969Z,12.20
2022-11-17T22:50:09.791Z,10.50
2022-11-17T22:53:11.864Z,14.27
2022-11-17T22:56:13.751Z,11.50
2022-11-17T22:59:16.527Z,12.50
2022-11-17T23:02:18.500Z,13.82
2022-11-17T23:05:27.679Z,16.83
2022-11-17T23:08:29.792Z,12.47
2022-11-17T23:11:38.844Z,14.43
2022-11-17T23:14:41.079Z,14.25
2022-11-17T23:17:43.332Z,19.42
2022-11-17T23:20:45.231Z,15.52
2022-11-17T23:23:47.648Z,11.57
2022-11-17T23:26:49.524Z,14.97
2022-11-17T23:29:51.388Z,14.80
2022-11-17T23:32:57.124Z,14.57
2022-11-17T23:35:59.121Z,14.55
2022-11-17T23:39:02.013Z,20.10
2022-11-17T23:42:04.459Z,19.43
2022-11-17T23:45:07.491Z,16.75
2022-11-17T23:48:09.397Z,18.92
2022-11-17T23:51:13.736Z,21.58
2022-11-17T23:54:15.703Z,20.52
2022-11-17T23:57:17.644Z,23.37
